MTPPMTCH

Guest
Details From MTPP - TOUSSAINT LOUVERTURE INTL
To MTCH - CAP HAITIEN INTL
Flight Number -
Tags generated
Created
Modified
Stats Distance 69 nm / 129 km
Max Altitude 0 ft / 0 m
Waypoints 3
Social Downloads 1
Likes 0
Share VATSIM

Download

Looking for another format? Having issues loading an existing format? Contact us
Advertisement - Login to hide

Notes

Basic altitude profile: - Ascent Rate: 2500ft/min - Ascent Speed: 250kts - Cruise Altitude: 35000ft - Cruise Speed: 420kts - Descent Rate: 1500ft/min - Descent Speed: 250kts Options: - Use NATs: yes - Use PACOTS: yes - Use low airways: yes - Use high airways: yes

Route

MTPP HCN MTCH

ID Type Via Altitude Latitude Longitude Leg Dist Tot Dist Heading (true) Name
O MTPP APT - 0 ft / 0 m 18.58005˚ -72.29254˚ - 0 nm - TOUSSAINT LOUVERTURE INTL
HCN VOR - 0 ft / 0 m 19.72783˚ -72.19667˚ 69 nm 69 nm 4° / 5° CAP HAITIEN VOR
O MTCH APT - 0 ft / 0 m 19.73299˚ -72.19474˚ 0 nm 69 nm 19° / 19° CAP HAITIEN INTL

Altitude Profile

Advertisement - Login to hide

MTPP

Details ICAO MTPP (PAP)
Name TOUSSAINT LOUVERTURE INTL
Region Haiti
Timezone America/Port-au-Prince (UTC-5.0)
Stats Elevation 122 ft / 37 m (AMSL)
Location 18.580051° -72.292540°
Runways 1
Magnetic Variation 10.192° W

METAR

MTPP 152000Z 09010G20KT 9999 FEW028 33/18 Q1012 A2990

Decode

TAF

TAF MTPP 151700Z 1518/1618 10014KT 9000 FEW026 BECMG 1519/1522 18008KT FM160400 VRB02KT 7000 NSC FM161400 09012KT 9999 FEW024

Decode

Departure Runways

ID Width Length Bearing (true) Bearing (mag) Surface Threshold Offset Overrun Length
10 141 ft / 43 m 9,963 ft / 3,037 m 86.96° 97.15° Asphalt 0 ft / 0 m 0 ft / 0 m
28 141 ft / 43 m 9,963 ft / 3,037 m 266.97° 277.16° Asphalt 0 ft / 0 m 0 ft / 0 m

MTCH

Details ICAO MTCH (CAP)
Name CAP HAITIEN INTL
Region Haiti
Timezone America/Port-au-Prince (UTC-5.0)
Stats Elevation 10 ft / 3 m (AMSL)
Location 19.732989° -72.194738°
Runways 1
Magnetic Variation 10.388° W

METAR

MTCH 151900Z 02008KT 9999 FEW030 28/20 Q1015 A2998

Decode

TAF

TAF MTCH 151700Z 1518/1618 06015KT 9000 FEW028 PROB30 TEMPO 1600/1604 VRB02KT 4500 -SHRA FEW024CB SCT040 BECMG 1606/1610 10010KT 7000 NSW FEW024 FM161500 09015G25KT 9999 FEW026

Decode

Destination Runways

ID Width Length Bearing (true) Bearing (mag) Surface Threshold Offset Overrun Length
05 131 ft / 40 m 4,915 ft / 1,498 m 39.19° 49.58° Asphalt 176 ft / 54 m 0 ft / 0 m
23 131 ft / 40 m 4,915 ft / 1,498 m 219.19° 229.58° Asphalt 0 ft / 0 m 0 ft / 0 m